Time;durP1;ratioP1;P1;durP2;ratioP2;P2;SDS_P1;SDS_P2;PMS_P1;PMS_P2;Temp;Humidity;BMP_temperature;BMP_pressure;BME280_temperature;BME280_humidity;BME280_pressure;Samples;Min_cycle;Max_cycle;Signal;HPM_P1;HPM_P2
2021/12/27 00:00:09;;;;;;;22.93;13.33;;;;;;;;;;5086643;28;21079;-65
2021/12/27 00:02:35;;;;;;;25.03;14.67;;;;;;;;;;5071127;28;20394;-65
2021/12/27 00:05:01;;;;;;;22.03;12.90;;;;;;;;;;5066637;28;20290;-65
2021/12/27 00:07:27;;;;;;;24.60;14.53;;;;;;;;;;5082475;28;20298;-65
2021/12/27 00:09:54;;;;;;;22.17;13.20;;;;;;;;;;5064958;28;20291;-65
2021/12/27 00:12:20;;;;;;;25.90;14.33;;;;;;;;;;5072556;28;20337;-64
2021/12/27 00:14:46;;;;;;;24.33;13.70;;;;;;;;;;5093194;28;20286;-65
2021/12/27 00:17:12;;;;;;;25.30;14.60;;;;;;;;;;5093727;28;20285;-64
2021/12/27 00:19:38;;;;;;;22.70;12.67;;;;;;;;;;5075616;28;20094;-66
2021/12/27 00:22:04;;;;;;;21.30;13.20;;;;;;;;;;5093010;28;20135;-64
2021/12/27 00:24:30;;;;;;;23.57;14.50;;;;;;;;;;5088956;28;20456;-64
2021/12/27 00:26:56;;;;;;;26.63;14.37;;;;;;;;;;5070333;28;20295;-64
2021/12/27 00:29:22;;;;;;;23.53;14.97;;;;;;;;;;5055480;28;20412;-65
2021/12/27 00:31:48;;;;;;;24.73;14.23;;;;;;;;;;5084648;28;20282;-65
2021/12/27 00:34:15;;;;;;;28.23;15.23;;;;;;;;;;5093610;28;20290;-64
2021/12/27 00:36:41;;;;;;;22.77;13.87;;;;;;;;;;5074777;28;20298;-65
2021/12/27 00:39:07;;;;;;;26.07;15.23;;;;;;;;;;5092581;28;20304;-64
2021/12/27 00:41:33;;;;;;;26.93;15.00;;;;;;;;;;5070744;28;20842;-64
2021/12/27 00:43:59;;;;;;;24.43;14.20;;;;;;;;;;5091610;28;20046;-65
2021/12/27 00:46:25;;;;;;;25.73;14.53;;;;;;;;;;5088278;28;20297;-64
2021/12/27 00:48:51;;;;;;;21.57;13.13;;;;;;;;;;5081828;28;20290;-65
2021/12/27 00:51:17;;;;;;;24.37;14.77;;;;;;;;;;5092185;28;20040;-64
2021/12/27 00:53:43;;;;;;;24.03;15.40;;;;;;;;;;5093020;28;20051;-64
2021/12/27 00:56:09;;;;;;;22.60;13.47;;;;;;;;;;5074067;28;20282;-64
2021/12/27 00:58:35;;;;;;;26.77;14.67;;;;;;;;;;5091873;28;20314;-65
2021/12/27 01:01:01;;;;;;;24.40;14.27;;;;;;;;;;5065662;28;20391;-65
2021/12/27 01:03:27;;;;;;;26.23;14.13;;;;;;;;;;5087414;28;20044;-64
2021/12/27 01:05:53;;;;;;;25.13;15.37;;;;;;;;;;5074201;28;20702;-65
2021/12/27 01:08:20;;;;;;;24.17;14.20;;;;;;;;;;5075284;28;20938;-64
2021/12/27 01:15:52;;;;;;;27.07;15.03;;;;;;;;;;5092359;28;20315;-65
2021/12/27 01:18:19;;;;;;;26.87;15.47;;;;;;;;;;5091196;28;20320;-65
2021/12/27 01:20:45;;;;;;;27.47;16.10;;;;;;;;;;5092017;28;20321;-64
2021/12/27 01:23:11;;;;;;;27.67;16.10;;;;;;;;;;5074801;28;20298;-64
2021/12/27 01:25:38;;;;;;;29.37;16.20;;;;;;;;;;5092616;28;20282;-64
2021/12/27 01:28:04;;;;;;;29.77;17.30;;;;;;;;;;5092455;28;20274;-64
2021/12/27 01:30:36;;;;;;;30.77;17.87;;;;;;;;;;5092401;28;20335;-64
2021/12/27 01:33:02;;;;;;;28.37;18.93;;;;;;;;;;5074538;28;20289;-65
2021/12/27 01:35:28;;;;;;;31.07;19.13;;;;;;;;;;5074221;28;20424;-65
2021/12/27 01:37:55;;;;;;;28.53;16.40;;;;;;;;;;5092306;28;20290;-65
2021/12/27 01:40:22;;;;;;;27.47;16.27;;;;;;;;;;5074165;28;20395;-65
2021/12/27 01:43:02;;;;;;;27.90;16.70;;;;;;;;;;5092193;28;20660;-65
2021/12/27 01:45:28;;;;;;;28.87;16.07;;;;;;;;;;5092397;28;20282;-64
2021/12/27 01:47:54;;;;;;;27.97;16.37;;;;;;;;;;5073713;28;20839;-64
2021/12/27 01:50:21;;;;;;;29.13;16.80;;;;;;;;;;5091651;28;20294;-65
2021/12/27 01:52:47;;;;;;;30.73;17.47;;;;;;;;;;5092208;28;20282;-65
2021/12/27 01:55:13;;;;;;;31.03;18.37;;;;;;;;;;5074250;28;20294;-65
2021/12/27 01:57:39;;;;;;;31.83;18.07;;;;;;;;;;5091968;28;20776;-65
2021/12/27 02:00:06;;;;;;;33.93;18.43;;;;;;;;;;5091380;28;20392;-64
2021/12/27 02:02:32;;;;;;;32.33;19.00;;;;;;;;;;5091432;28;20298;-64
2021/12/27 02:04:58;;;;;;;32.87;18.67;;;;;;;;;;5073445;28;20297;-65
2021/12/27 02:07:24;;;;;;;32.50;18.20;;;;;;;;;;5073836;28;20652;-65
2021/12/27 02:10:02;;;;;;;31.93;18.33;;;;;;;;;;5091510;28;20521;-64
2021/12/27 02:12:29;;;;;;;30.87;18.07;;;;;;;;;;5091827;28;20310;-64
2021/12/27 02:14:55;;;;;;;34.50;19.30;;;;;;;;;;5091628;28;20293;-64
2021/12/27 02:17:21;;;;;;;31.97;18.30;;;;;;;;;;5091092;28;20294;-65
2021/12/27 02:19:47;;;;;;;31.63;18.63;;;;;;;;;;5091311;28;20314;-65
2021/12/27 02:22:14;;;;;;;34.33;19.00;;;;;;;;;;5073232;28;20290;-65
2021/12/27 02:24:43;;;;;;;35.73;17.57;;;;;;;;;;5091573;28;20286;-65
2021/12/27 02:27:12;;;;;;;37.23;19.47;;;;;;;;;;5091230;28;20278;-65
2021/12/27 02:29:38;;;;;;;31.17;18.37;;;;;;;;;;5090508;28;20364;-65
2021/12/27 02:32:04;;;;;;;33.47;20.03;;;;;;;;;;5056195;28;20804;-65
2021/12/27 02:34:30;;;;;;;28.77;17.17;;;;;;;;;;5090955;28;20294;-64
2021/12/27 02:36:57;;;;;;;30.50;17.83;;;;;;;;;;5072974;28;20373;-64
2021/12/27 02:39:25;;;;;;;31.83;19.20;;;;;;;;;;5090965;28;20310;-64
2021/12/27 02:41:51;;;;;;;34.13;18.67;;;;;;;;;;5072516;28;20290;-64
2021/12/27 02:44:17;;;;;;;32.90;17.77;;;;;;;;;;5091004;28;20357;-64
2021/12/27 02:46:43;;;;;;;36.17;20.77;;;;;;;;;;5072754;28;20351;-64
2021/12/27 02:49:09;;;;;;;40.60;19.83;;;;;;;;;;5056139;28;20302;-64
2021/12/27 02:51:35;;;;;;;30.20;17.50;;;;;;;;;;5090774;28;20043;-64
2021/12/27 02:54:01;;;;;;;31.80;18.47;;;;;;;;;;5090406;28;20278;-65
2021/12/27 02:56:29;;;;;;;32.00;19.33;;;;;;;;;;5090777;28;20048;-65
2021/12/27 02:58:56;;;;;;;31.27;18.30;;;;;;;;;;5090700;28;20286;-64
2021/12/27 03:01:24;;;;;;;33.30;17.67;;;;;;;;;;5089452;28;20648;-65
2021/12/27 03:03:50;;;;;;;35.97;19.17;;;;;;;;;;5082373;28;20306;-64
2021/12/27 03:06:16;;;;;;;33.10;19.07;;;;;;;;;;5080143;28;20815;-64
2021/12/27 03:08:43;;;;;;;33.13;19.10;;;;;;;;;;5060037;28;20311;-64
2021/12/27 03:11:12;;;;;;;30.80;17.73;;;;;;;;;;5079440;28;20278;-65
2021/12/27 03:13:40;;;;;;;28.93;16.37;;;;;;;;;;5061855;28;20290;-65
2021/12/27 03:16:06;;;;;;;33.27;20.03;;;;;;;;;;5077327;28;20365;-65
2021/12/27 03:18:34;;;;;;;29.43;17.97;;;;;;;;;;5079407;28;20295;-65
2021/12/27 03:21:00;;;;;;;32.17;17.90;;;;;;;;;;5075216;28;20317;-64
2021/12/27 03:23:27;;;;;;;34.63;17.83;;;;;;;;;;5077493;28;20827;-64
2021/12/27 03:25:53;;;;;;;32.67;18.10;;;;;;;;;;5083913;28;21102;-65
2021/12/27 03:28:19;;;;;;;34.97;19.67;;;;;;;;;;5090470;28;20286;-64
2021/12/27 03:30:46;;;;;;;34.73;20.53;;;;;;;;;;5083714;28;20279;-64
2021/12/27 03:33:12;;;;;;;32.23;19.67;;;;;;;;;;5078439;28;20282;-64
2021/12/27 03:35:40;;;;;;;31.50;18.87;;;;;;;;;;5079025;28;20334;-65
2021/12/27 03:38:08;;;;;;;34.63;18.13;;;;;;;;;;5078122;28;20286;-64
2021/12/27 03:40:34;;;;;;;33.00;19.90;;;;;;;;;;5077787;28;20706;-64
2021/12/27 03:43:00;;;;;;;31.73;18.17;;;;;;;;;;5078741;28;20325;-64
2021/12/27 03:45:31;;;;;;;29.23;17.80;;;;;;;;;;5077555;28;20344;-64
2021/12/27 03:47:57;;;;;;;30.37;18.63;;;;;;;;;;5076663;28;20775;-64
2021/12/27 03:50:25;;;;;;;33.07;19.30;;;;;;;;;;5060508;28;20278;-65
2021/12/27 03:52:52;;;;;;;35.57;20.87;;;;;;;;;;5078505;28;20087;-64
2021/12/27 03:55:18;;;;;;;38.93;21.40;;;;;;;;;;5077316;28;20371;-64
2021/12/27 03:57:52;;;;;;;39.43;22.13;;;;;;;;;;5079349;28;20698;-65
2021/12/27 04:02:47;;;;;;;38.20;21.87;;;;;;;;;;5087900;28;20676;-65
2021/12/27 04:05:14;;;;;;;46.20;24.07;;;;;;;;;;5089478;28;20286;-64
2021/12/27 04:07:40;;;;;;;46.80;24.90;;;;;;;;;;5071509;28;20788;-65
2021/12/27 04:10:07;;;;;;;52.03;24.97;;;;;;;;;;5076397;28;20287;-65
2021/12/27 04:12:33;;;;;;;52.00;24.30;;;;;;;;;;5034575;28;20283;-65
2021/12/27 04:14:59;;;;;;;53.63;26.13;;;;;;;;;;5062056;28;20314;-65
2021/12/27 04:17:25;;;;;;;52.20;25.23;;;;;;;;;;5089458;28;20279;-65
2021/12/27 04:19:51;;;;;;;53.27;25.67;;;;;;;;;;5073691;28;20371;-64
2021/12/27 04:22:17;;;;;;;53.50;24.83;;;;;;;;;;5069190;28;20828;-64
2021/12/27 04:24:43;;;;;;;54.47;27.60;;;;;;;;;;5068956;28;20286;-65
2021/12/27 04:27:09;;;;;;;50.90;24.73;;;;;;;;;;5069252;28;20051;-64
2021/12/27 04:29:35;;;;;;;49.67;26.07;;;;;;;;;;5069356;28;20271;-65
2021/12/27 04:32:01;;;;;;;49.77;25.57;;;;;;;;;;5089550;28;20043;-64
2021/12/27 04:34:27;;;;;;;52.87;25.10;;;;;;;;;;5089033;28;20408;-65
2021/12/27 04:36:53;;;;;;;55.63;27.93;;;;;;;;;;5089536;28;20047;-65
2021/12/27 04:39:19;;;;;;;51.97;26.33;;;;;;;;;;5070877;28;20392;-65
2021/12/27 04:41:46;;;;;;;47.93;26.00;;;;;;;;;;5088823;28;20482;-65
2021/12/27 04:44:11;;;;;;;55.37;26.70;;;;;;;;;;5089594;28;20659;-65
2021/12/27 04:46:38;;;;;;;52.20;26.03;;;;;;;;;;5089257;28;20293;-65
2021/12/27 04:49:04;;;;;;;54.07;26.40;;;;;;;;;;5089501;28;20138;-64
2021/12/27 04:51:30;;;;;;;52.43;26.27;;;;;;;;;;5089505;28;20289;-65
2021/12/27 04:53:56;;;;;;;50.37;25.23;;;;;;;;;;5091551;28;20671;-65
2021/12/27 04:56:22;;;;;;;54.90;25.90;;;;;;;;;;5093163;28;20044;-65
2021/12/27 04:58:48;;;;;;;50.33;24.97;;;;;;;;;;5074610;28;20505;-65
2021/12/27 05:01:14;;;;;;;51.60;25.70;;;;;;;;;;5092114;28;20393;-65
2021/12/27 05:03:40;;;;;;;49.07;25.73;;;;;;;;;;5074711;28;20652;-65
2021/12/27 05:06:06;;;;;;;48.10;26.13;;;;;;;;;;5092699;28;20282;-65
2021/12/27 05:08:33;;;;;;;56.07;26.40;;;;;;;;;;5074873;28;20539;-64
2021/12/27 05:10:59;;;;;;;50.63;25.67;;;;;;;;;;5092290;28;20278;-65
2021/12/27 05:13:25;;;;;;;48.80;25.37;;;;;;;;;;5092830;28;20347;-65
2021/12/27 05:15:51;;;;;;;55.50;28.63;;;;;;;;;;5091950;28;20294;-64
2021/12/27 05:18:17;;;;;;;58.37;27.97;;;;;;;;;;5092569;28;20292;-65
2021/12/27 05:20:43;;;;;;;57.10;26.67;;;;;;;;;;5092154;28;20310;-65
2021/12/27 05:23:10;;;;;;;57.33;27.67;;;;;;;;;;5092609;28;20286;-65
2021/12/27 05:25:36;;;;;;;56.87;28.17;;;;;;;;;;5091829;28;20043;-65
2021/12/27 05:28:02;;;;;;;59.30;28.67;;;;;;;;;;5092339;28;20689;-65
2021/12/27 05:30:28;;;;;;;65.57;28.17;;;;;;;;;;5091758;28;20830;-66
2021/12/27 05:32:54;;;;;;;68.33;28.47;;;;;;;;;;5091894;28;20401;-65
2021/12/27 05:35:20;;;;;;;75.30;31.83;;;;;;;;;;5092288;28;20366;-65
2021/12/27 05:37:46;;;;;;;78.13;34.00;;;;;;;;;;5092062;28;20131;-65
2021/12/27 05:40:14;;;;;;;81.10;31.10;;;;;;;;;;5091927;28;20364;-65
2021/12/27 05:42:40;;;;;;;69.87;29.90;;;;;;;;;;5091779;28;20339;-66
2021/12/27 05:45:06;;;;;;;76.57;33.53;;;;;;;;;;5073833;28;20365;-66
2021/12/27 05:47:33;;;;;;;69.77;30.93;;;;;;;;;;5092133;28;20278;-64
2021/12/27 05:49:59;;;;;;;72.27;31.07;;;;;;;;;;5091691;28;20278;-65
2021/12/27 05:52:25;;;;;;;80.10;34.70;;;;;;;;;;5091891;28;20306;-65
2021/12/27 05:54:51;;;;;;;75.77;32.23;;;;;;;;;;5073146;28;20297;-66
2021/12/27 05:57:17;;;;;;;77.37;33.27;;;;;;;;;;5091249;28;21006;-65
2021/12/27 05:59:43;;;;;;;77.43;31.23;;;;;;;;;;5073671;28;20083;-65
2021/12/27 06:02:09;;;;;;;82.83;33.50;;;;;;;;;;5091443;28;20316;-65
2021/12/27 06:04:35;;;;;;;85.63;33.83;;;;;;;;;;5090787;28;20048;-65
2021/12/27 06:07:01;;;;;;;68.63;33.13;;;;;;;;;;5072972;28;20105;-65
2021/12/27 06:09:27;;;;;;;68.93;33.37;;;;;;;;;;5091715;28;20510;-66
2021/12/27 06:11:53;;;;;;;76.20;32.63;;;;;;;;;;5073133;28;20051;-65
2021/12/27 06:14:19;;;;;;;76.83;32.77;;;;;;;;;;5073171;28;20052;-65
2021/12/27 06:16:45;;;;;;;72.10;33.23;;;;;;;;;;5091091;28;20130;-65
2021/12/27 06:19:11;;;;;;;76.03;33.37;;;;;;;;;;5090980;28;20423;-65
2021/12/27 06:21:37;;;;;;;81.00;32.50;;;;;;;;;;5062770;28;20141;-65
2021/12/27 06:24:03;;;;;;;77.90;33.17;;;;;;;;;;5053074;28;20287;-65
2021/12/27 06:26:29;;;;;;;78.80;34.10;;;;;;;;;;5053133;28;20819;-65
2021/12/27 06:28:55;;;;;;;91.70;33.73;;;;;;;;;;5071209;28;20290;-65
2021/12/27 06:31:22;;;;;;;88.27;34.20;;;;;;;;;;5089814;28;20304;-66
2021/12/27 06:33:48;;;;;;;96.93;35.77;;;;;;;;;;5091273;28;20953;-65
2021/12/27 06:36:15;;;;;;;83.37;34.47;;;;;;;;;;5091153;28;21145;-65
2021/12/27 06:38:41;;;;;;;83.27;33.83;;;;;;;;;;5091219;28;20621;-65
2021/12/27 06:41:07;;;;;;;76.97;32.67;;;;;;;;;;5072173;28;20810;-65
2021/12/27 06:43:33;;;;;;;80.47;31.80;;;;;;;;;;5090034;28;20289;-65
2021/12/27 06:46:00;;;;;;;81.47;34.10;;;;;;;;;;5072504;28;20040;-65
2021/12/27 06:48:26;;;;;;;86.57;34.27;;;;;;;;;;5090831;28;20322;-65
2021/12/27 06:50:52;;;;;;;88.00;35.40;;;;;;;;;;5090940;28;20644;-65
2021/12/27 06:53:18;;;;;;;88.57;35.83;;;;;;;;;;5090638;28;20278;-65
2021/12/27 06:55:45;;;;;;;85.43;34.83;;;;;;;;;;5090083;28;20361;-65
2021/12/27 06:58:11;;;;;;;85.97;37.10;;;;;;;;;;5071898;28;20314;-65
2021/12/27 07:00:37;;;;;;;100.30;35.33;;;;;;;;;;5089988;28;20383;-66
2021/12/27 07:03:03;;;;;;;86.63;34.13;;;;;;;;;;5089842;28;20282;-65
2021/12/27 07:05:29;;;;;;;102.13;37.20;;;;;;;;;;5090343;28;20776;-65
2021/12/27 07:07:55;;;;;;;97.77;37.87;;;;;;;;;;5090373;28;20709;-65
2021/12/27 07:10:22;;;;;;;93.60;37.73;;;;;;;;;;5090144;28;20878;-65
2021/12/27 07:12:48;;;;;;;89.67;36.57;;;;;;;;;;5072167;28;20841;-65
2021/12/27 07:15:14;;;;;;;99.03;38.20;;;;;;;;;;5090184;28;20278;-64
2021/12/27 07:17:41;;;;;;;101.20;36.17;;;;;;;;;;5073813;28;20290;-65
2021/12/27 07:20:07;;;;;;;116.23;39.90;;;;;;;;;;5090171;28;20306;-65
2021/12/27 07:22:33;;;;;;;109.77;38.80;;;;;;;;;;5071740;28;20290;-65
2021/12/27 07:24:59;;;;;;;115.23;39.20;;;;;;;;;;5090034;28;20373;-65
2021/12/27 07:27:25;;;;;;;119.33;42.17;;;;;;;;;;5089879;28;20293;-65
2021/12/27 07:29:51;;;;;;;120.47;40.17;;;;;;;;;;5088948;28;20302;-65
2021/12/27 07:32:18;;;;;;;124.53;40.60;;;;;;;;;;5090201;28;20052;-65
2021/12/27 07:34:44;;;;;;;129.83;43.50;;;;;;;;;;5090006;28;20293;-65
2021/12/27 07:37:10;;;;;;;129.80;41.17;;;;;;;;;;5089885;28;20278;-65
2021/12/27 07:39:36;;;;;;;117.20;39.80;;;;;;;;;;5069172;28;20872;-65
2021/12/27 07:42:02;;;;;;;131.13;40.70;;;;;;;;;;5075529;28;20037;-65
2021/12/27 07:44:28;;;;;;;211.73;51.70;;;;;;;;;;5057569;28;20377;-65
2021/12/27 07:46:54;;;;;;;144.63;42.33;;;;;;;;;;5060308;28;20361;-65
2021/12/27 07:49:20;;;;;;;140.07;42.17;;;;;;;;;;5078944;28;20771;-65
2021/12/27 07:51:47;;;;;;;166.17;45.87;;;;;;;;;;5077027;28;20907;-66
2021/12/27 07:54:13;;;;;;;146.70;44.30;;;;;;;;;;5079270;28;20369;-65
2021/12/27 07:56:39;;;;;;;158.40;47.60;;;;;;;;;;5077375;28;20169;-66
2021/12/27 07:59:05;;;;;;;149.33;44.47;;;;;;;;;;5076258;28;21007;-66
2021/12/27 08:01:32;;;;;;;175.57;47.73;;;;;;;;;;5060550;28;20122;-65
2021/12/27 08:03:58;;;;;;;171.80;45.13;;;;;;;;;;5077661;28;20071;-65
2021/12/27 08:06:24;;;;;;;201.20;47.57;;;;;;;;;;5077468;28;20297;-66
2021/12/27 08:08:50;;;;;;;190.97;50.83;;;;;;;;;;5079477;28;20361;-65
2021/12/27 08:11:16;;;;;;;184.73;50.23;;;;;;;;;;5064759;28;20274;-65
2021/12/27 08:13:42;;;;;;;192.00;53.17;;;;;;;;;;5082728;28;20282;-65
2021/12/27 08:16:12;;;;;;;188.90;49.73;;;;;;;;;;5064163;28;20037;-65
2021/12/27 08:18:38;;;;;;;183.73;51.13;;;;;;;;;;5062793;28;20290;-66
2021/12/27 08:21:04;;;;;;;216.70;51.50;;;;;;;;;;5057136;28;20429;-65
2021/12/27 08:23:30;;;;;;;211.20;51.73;;;;;;;;;;5061429;28;20283;-66
2021/12/27 08:25:56;;;;;;;196.33;51.20;;;;;;;;;;5060740;28;20299;-66
2021/12/27 08:28:22;;;;;;;207.43;53.87;;;;;;;;;;5061493;28;20382;-65
2021/12/27 08:30:48;;;;;;;195.47;51.13;;;;;;;;;;5062518;28;20345;-66
2021/12/27 08:33:14;;;;;;;215.00;54.63;;;;;;;;;;5061928;28;20283;-66
2021/12/27 08:35:40;;;;;;;199.87;52.33;;;;;;;;;;5061668;28;20099;-66
2021/12/27 08:38:06;;;;;;;230.80;55.77;;;;;;;;;;5064409;28;20044;-66
2021/12/27 08:40:32;;;;;;;226.40;55.33;;;;;;;;;;5040807;28;20331;-65
2021/12/27 08:42:59;;;;;;;226.63;52.87;;;;;;;;;;5059437;28;20324;-66
2021/12/27 08:45:25;;;;;;;236.97;57.30;;;;;;;;;;5059286;28;20291;-65
2021/12/27 08:47:51;;;;;;;218.47;52.53;;;;;;;;;;5061146;28;20689;-65
2021/12/27 08:50:17;;;;;;;262.30;57.60;;;;;;;;;;5062009;28;20283;-65
2021/12/27 08:52:44;;;;;;;242.37;56.67;;;;;;;;;;5057580;28;20041;-65
2021/12/27 08:55:10;;;;;;;243.77;55.57;;;;;;;;;;5061128;28;20298;-65
2021/12/27 08:57:37;;;;;;;232.57;54.30;;;;;;;;;;5063379;28;20295;-65
2021/12/27 09:00:04;;;;;;;239.00;55.57;;;;;;;;;;5062942;28;20049;-65
2021/12/27 09:02:30;;;;;;;211.80;52.30;;;;;;;;;;5058904;28;20098;-66
2021/12/27 09:04:56;;;;;;;273.10;57.57;;;;;;;;;;5063287;28;20332;-66
2021/12/27 09:07:22;;;;;;;281.17;59.47;;;;;;;;;;5065774;28;20398;-65
2021/12/27 09:09:48;;;;;;;255.27;55.97;;;;;;;;;;5061812;28;20293;-66
2021/12/27 09:12:15;;;;;;;275.37;60.60;;;;;;;;;;5060913;28;20656;-65
2021/12/27 09:14:41;;;;;;;265.83;60.40;;;;;;;;;;5061507;28;20099;-65
2021/12/27 09:17:07;;;;;;;292.97;60.23;;;;;;;;;;5059628;28;20363;-65
2021/12/27 09:19:33;;;;;;;321.23;67.10;;;;;;;;;;5082903;28;20306;-65
2021/12/27 09:22:00;;;;;;;335.40;67.77;;;;;;;;;;5073190;28;20866;-66
2021/12/27 09:24:28;;;;;;;359.37;69.47;;;;;;;;;;5073126;28;20803;-65
2021/12/27 09:26:54;;;;;;;322.00;63.53;;;;;;;;;;5084789;28;20671;-66
2021/12/27 09:29:20;;;;;;;376.37;69.67;;;;;;;;;;5074267;28;20583;-65
2021/12/27 09:31:46;;;;;;;342.20;64.03;;;;;;;;;;5091999;28;20044;-65
2021/12/27 09:34:12;;;;;;;311.70;62.70;;;;;;;;;;5057117;28;20279;-65
2021/12/27 09:36:38;;;;;;;357.57;67.20;;;;;;;;;;5091691;28;20282;-65
2021/12/27 09:39:05;;;;;;;382.27;68.53;;;;;;;;;;5089829;28;20094;-65
2021/12/27 09:41:31;;;;;;;386.10;71.27;;;;;;;;;;5083500;28;20041;-65
2021/12/27 09:43:57;;;;;;;374.10;70.87;;;;;;;;;;5053405;28;20048;-65
2021/12/27 09:46:23;;;;;;;399.17;73.97;;;;;;;;;;5071399;28;20127;-66
2021/12/27 09:48:51;;;;;;;342.03;66.63;;;;;;;;;;5071415;28;20044;-65
2021/12/27 09:51:17;;;;;;;487.13;82.90;;;;;;;;;;5070843;28;20395;-65
2021/12/27 09:53:44;;;;;;;389.57;72.47;;;;;;;;;;5070731;28;20284;-65
2021/12/27 09:56:10;;;;;;;400.20;71.43;;;;;;;;;;5071013;28;20041;-66
2021/12/27 09:58:37;;;;;;;404.63;74.70;;;;;;;;;;5070947;28;20279;-66
2021/12/27 10:01:05;;;;;;;374.53;65.70;;;;;;;;;;5070423;28;20044;-65
2021/12/27 10:03:32;;;;;;;374.87;66.87;;;;;;;;;;5071028;28;20087;-66
2021/12/27 10:06:11;;;;;;;506.70;87.00;;;;;;;;;;5070741;28;20480;-66
2021/12/27 10:08:37;;;;;;;476.73;79.23;;;;;;;;;;5089810;28;20117;-67
2021/12/27 10:11:03;;;;;;;420.43;74.27;;;;;;;;;;5091186;28;20076;-66
2021/12/27 10:13:29;;;;;;;1959.20;279.27;;;;;;;;;;5091204;28;20056;-66
2021/12/27 10:15:56;;;;;;;475.47;79.77;;;;;;;;;;5091373;28;20483;-66
2021/12/27 10:18:23;;;;;;;472.63;81.87;;;;;;;;;;5090411;28;20048;-66
2021/12/27 10:20:49;;;;;;;427.23;79.00;;;;;;;;;;5091250;28;20052;-66
2021/12/27 10:23:18;;;;;;;341.27;61.40;;;;;;;;;;5090538;28;20047;-66
2021/12/27 10:25:44;;;;;;;502.17;83.77;;;;;;;;;;5090600;28;20059;-66
2021/12/27 10:28:10;;;;;;;340.60;61.97;;;;;;;;;;5090590;28;20051;-66
2021/12/27 10:30:41;;;;;;;351.17;62.93;;;;;;;;;;5091030;28;20048;-65
2021/12/27 10:33:07;;;;;;;248.80;50.30;;;;;;;;;;5072203;28;20406;-66
2021/12/27 10:35:37;;;;;;;264.20;53.07;;;;;;;;;;5090797;28;20060;-66
2021/12/27 10:38:16;;;;;;;320.73;58.73;;;;;;;;;;5090389;28;20556;-66
2021/12/27 10:40:49;;;;;;;264.77;49.43;;;;;;;;;;5090606;28;20040;-66
2021/12/27 10:43:17;;;;;;;296.10;55.28;;;;;;;;;;5090679;28;20067;-65
2021/12/27 10:45:45;;;;;;;292.57;53.67;;;;;;;;;;5072317;28;20134;-66
2021/12/27 10:48:19;;;;;;;311.00;56.13;;;;;;;;;;5071969;28;20497;-67
2021/12/27 10:50:45;;;;;;;256.42;52.00;;;;;;;;;;5089785;28;20089;-66
2021/12/27 10:53:14;;;;;;;249.23;47.07;;;;;;;;;;5090269;28;20040;-66
2021/12/27 10:55:43;;;;;;;316.40;58.50;;;;;;;;;;5072219;28;20414;-66
2021/12/27 10:58:11;;;;;;;270.27;52.87;;;;;;;;;;5090331;28;20596;-65
2021/12/27 11:00:38;;;;;;;289.53;56.13;;;;;;;;;;5090000;28;20051;-66
2021/12/27 11:03:04;;;;;;;312.90;62.00;;;;;;;;;;5090125;28;20071;-66
2021/12/27 11:05:32;;;;;;;399.60;68.30;;;;;;;;;;5090439;28;20052;-66
2021/12/27 11:08:00;;;;;;;305.80;57.67;;;;;;;;;;5089872;28;20040;-66
2021/12/27 11:10:27;;;;;;;271.47;55.07;;;;;;;;;;5090500;28;20056;-66
2021/12/27 11:12:53;;;;;;;287.53;57.37;;;;;;;;;;5090258;28;20040;-66
2021/12/27 11:15:19;;;;;;;327.07;59.13;;;;;;;;;;5071514;28;20044;-66
2021/12/27 11:17:46;;;;;;;340.13;58.93;;;;;;;;;;5066067;28;20191;-66
2021/12/27 11:20:13;;;;;;;287.77;59.87;;;;;;;;;;5068502;28;20049;-66
2021/12/27 11:22:42;;;;;;;282.63;57.90;;;;;;;;;;5069628;28;20040;-66
2021/12/27 11:25:17;;;;;;;282.90;59.63;;;;;;;;;;5068206;28;20048;-67
2021/12/27 11:27:43;;;;;;;366.93;65.53;;;;;;;;;;5068532;28;20611;-66
2021/12/27 11:30:12;;;;;;;343.03;61.07;;;;;;;;;;5069110;28;20050;-66
2021/12/27 11:32:58;;;;;;;337.03;59.60;;;;;;;;;;5068328;28;20080;-66
2021/12/27 11:35:24;;;;;;;324.97;54.70;;;;;;;;;;5069537;28;20044;-65
2021/12/27 11:37:51;;;;;;;320.90;62.83;;;;;;;;;;5069165;28;20105;-66
2021/12/27 11:40:17;;;;;;;260.97;56.57;;;;;;;;;;5066067;28;20044;-66
2021/12/27 11:42:58;;;;;;;249.70;53.77;;;;;;;;;;5069635;28;20506;-65
2021/12/27 11:45:35;;;;;;;263.00;54.03;;;;;;;;;;5069460;28;20751;-66
2021/12/27 11:48:21;;;;;;;195.40;47.53;;;;;;;;;;5069009;28;20056;-66
2021/12/27 11:50:59;;;;;;;203.07;45.63;;;;;;;;;;5069718;28;20037;-67
2021/12/27 11:53:27;;;;;;;233.20;49.37;;;;;;;;;;5068367;28;20098;-66
2021/12/27 11:55:52;;;;;;;206.80;48.83;;;;;;;;;;5068933;28;20051;-67
2021/12/27 11:58:35;;;;;;;144.83;39.93;;;;;;;;;;5068481;28;20159;-67
2021/12/27 12:01:25;;;;;;;176.60;45.97;;;;;;;;;;5067871;28;20052;-66
2021/12/27 12:03:54;;;;;;;122.23;37.73;;;;;;;;;;5070534;28;20547;-66
2021/12/27 12:06:37;;;;;;;135.07;40.80;;;;;;;;;;5073584;28;20062;-66
2021/12/27 12:09:29;;;;;;;147.97;40.53;;;;;;;;;;5070564;28;20052;-66
2021/12/27 12:12:05;;;;;;;140.83;37.77;;;;;;;;;;5060029;28;20660;-66
2021/12/27 12:14:34;;;;;;;117.90;34.63;;;;;;;;;;5062186;28;20087;-66
2021/12/27 12:17:01;;;;;;;117.10;35.57;;;;;;;;;;5060225;28;20048;-66
2021/12/27 12:19:38;;;;;;;98.03;31.90;;;;;;;;;;5081130;28;20049;-67
2021/12/27 12:22:04;;;;;;;111.60;35.67;;;;;;;;;;5081260;28;20421;-67
2021/12/27 12:24:30;;;;;;;114.90;36.10;;;;;;;;;;5075204;28;20047;-66
2021/12/27 12:26:58;;;;;;;80.43;30.73;;;;;;;;;;5089485;28;20044;-66
2021/12/27 12:29:25;;;;;;;82.67;32.77;;;;;;;;;;5084777;28;20052;-66
2021/12/27 12:31:56;;;;;;;85.47;30.83;;;;;;;;;;5073556;28;20044;-66
2021/12/27 12:34:23;;;;;;;79.17;30.57;;;;;;;;;;5091508;28;20119;-66
2021/12/27 12:36:50;;;;;;;85.03;30.63;;;;;;;;;;5089954;28;20039;-67
2021/12/27 12:39:16;;;;;;;67.27;27.30;;;;;;;;;;5092118;28;20093;-66
2021/12/27 12:41:42;;;;;;;80.13;29.70;;;;;;;;;;5085572;28;20541;-66
2021/12/27 12:44:09;;;;;;;69.50;28.00;;;;;;;;;;5074421;28;20434;-66
2021/12/27 12:46:41;;;;;;;61.10;26.50;;;;;;;;;;5091984;28;20076;-66
2021/12/27 12:49:07;;;;;;;64.63;25.20;;;;;;;;;;5090382;28;20048;-67
2021/12/27 12:51:34;;;;;;;69.37;27.73;;;;;;;;;;5077233;28;20585;-67
2021/12/27 12:54:00;;;;;;;71.13;26.70;;;;;;;;;;5080601;28;20095;-66
2021/12/27 12:56:30;;;;;;;75.40;26.43;;;;;;;;;;5079922;28;20090;-66
2021/12/27 12:58:57;;;;;;;78.83;27.70;;;;;;;;;;5079853;28;20044;-66
2021/12/27 13:01:23;;;;;;;83.80;29.60;;;;;;;;;;5078299;28;20040;-66
2021/12/27 13:03:49;;;;;;;71.97;31.10;;;;;;;;;;5084518;28;20036;-66
2021/12/27 13:06:15;;;;;;;73.20;28.23;;;;;;;;;;5077515;28;20573;-66
2021/12/27 13:08:50;;;;;;;65.57;26.60;;;;;;;;;;5078876;28;20043;-65
2021/12/27 13:11:17;;;;;;;56.67;26.37;;;;;;;;;;5081493;28;20041;-66
2021/12/27 13:13:43;;;;;;;65.93;27.03;;;;;;;;;;5078549;28;20340;-65
2021/12/27 13:16:09;;;;;;;53.13;24.53;;;;;;;;;;5063950;28;20534;-66
2021/12/27 13:18:36;;;;;;;57.80;23.93;;;;;;;;;;5077493;28;20048;-67
2021/12/27 13:21:04;;;;;;;52.23;24.13;;;;;;;;;;5064886;28;20044;-66
2021/12/27 13:23:32;;;;;;;70.73;31.07;;;;;;;;;;5081221;28;20507;-66
2021/12/27 13:25:59;;;;;;;59.30;26.70;;;;;;;;;;5063732;28;20044;-66
2021/12/27 13:28:26;;;;;;;59.47;25.53;;;;;;;;;;5083243;28;20485;-66
2021/12/27 13:31:05;;;;;;;63.77;25.20;;;;;;;;;;5081258;28;20578;-66
2021/12/27 13:33:48;;;;;;;58.00;23.83;;;;;;;;;;5076196;28;20434;-66
2021/12/27 13:36:16;;;;;;;55.30;23.00;;;;;;;;;;5082089;28;20043;-66
2021/12/27 13:38:43;;;;;;;47.53;22.70;;;;;;;;;;5080627;28;20072;-66
2021/12/27 13:41:21;;;;;;;51.30;22.73;;;;;;;;;;5060803;28;20044;-65
2021/12/27 13:43:55;;;;;;;42.10;20.43;;;;;;;;;;5081487;28;20459;-66
2021/12/27 13:46:23;;;;;;;41.10;21.63;;;;;;;;;;5076537;28;20048;-65
2021/12/27 13:48:49;;;;;;;42.50;23.90;;;;;;;;;;5080008;28;20044;-66
2021/12/27 13:51:22;;;;;;;44.60;21.57;;;;;;;;;;5080631;28;20071;-66
2021/12/27 13:53:56;;;;;;;43.83;21.90;;;;;;;;;;5065187;28;20032;-65
2021/12/27 13:56:23;;;;;;;43.90;19.98;;;;;;;;;;5061982;28;20048;-66
2021/12/27 13:58:49;;;;;;;46.83;20.60;;;;;;;;;;5076802;28;20098;-66
2021/12/27 14:01:16;;;;;;;46.93;21.97;;;;;;;;;;5080718;28;20115;-66
2021/12/27 14:03:43;;;;;;;53.00;22.23;;;;;;;;;;5060924;28;20097;-66
2021/12/27 14:06:11;;;;;;;47.47;23.77;;;;;;;;;;5078457;28;20083;-66
2021/12/27 14:08:37;;;;;;;45.83;23.57;;;;;;;;;;5078272;28;20048;-67
2021/12/27 14:11:11;;;;;;;46.83;21.13;;;;;;;;;;5061870;28;20090;-66
2021/12/27 14:13:43;;;;;;;51.10;22.00;;;;;;;;;;5083480;28;20040;-66
2021/12/27 14:16:19;;;;;;;43.53;22.20;;;;;;;;;;5060645;28;20166;-67
2021/12/27 14:19:04;;;;;;;43.27;21.63;;;;;;;;;;5073280;28;20526;-68